LGTS/SKG METAR and TAF weather

Enter ICAO airport designator
Station Type Date Time Source
LGTS METAR 2020/01/21 09:20 UTC NOAA

LGTS 210920Z 34010KT CAVOK 05/M05 Q1042 NOSIG


Station Type Date Time Source
LGTS Decoded METAR 2020/01/21 09:20 UTC NOAA

Thessaloniki Airport , Greece (LGTS) 40-31N 022-58E 4M
Jan 21, 2020 - 04:20 AM EST / 2020.01.21 0920 UTC
Wind: from the NNW (340 degrees) at 12 MPH (10 KT):0
Visibility: greater than 7 mile(s):0
Temperature: 41 F (5 C)
Dew Point: 23 F (-5 C)
Relative Humidity: 48%
Pressure (altimeter): 30.77 in. Hg (1042 hPa)
ob: LGTS 210920Z 34010KT CAVOK 05/M05 Q1042 NOSIG
cycle: 9

Station Type Date Time Source
LGTS TAF 2020/01/21 06:16 UTC NOAA

TAF LGTS 210500Z 2106/2206 34010KT CAVOK

Example: see airport list